< < Back
Terminal Aerodrome Forecast


Current Version              Previous Versions:   1  2  3  4  5  6  7  8  9  

Terminal Aerodrome Forecast

747
FTUS42 KCAE 052100 AAB
TAFCAE
TAF AMD
KCAE 052101Z 0521/0618 30004KT P6SM OVC060
     FM052145 03010G18KT P6SM BKN007 OVC015
     FM052300 03014G24KT P6SM -RA OVC015
     FM060400 04012G20KT P6SM OVC035
     FM061400 05012G18KT P6SM BKN050=

Latest METAR

679
SAUS80 KWBC 060400 CCA
MTRCAE
METAR KCAE 060356Z 03009G18KT 5SM HZ BKN020 OVC031 06/03 A3028 RMK AO2
RAE01 SLP253 P0000 T00610028


USA.gov is the U.S. government's official web portal to all federal, state and local government web resources and services.